sensor_id;sensor_type;location;lat;lon;timestamp;temperature;humidity
19180;DHT22;9722;48.754;8.868;2023-06-26T00:02:56;17.20;71.60
19180;DHT22;9722;48.754;8.868;2023-06-26T00:06:16;17.20;72.00
19180;DHT22;9722;48.754;8.868;2023-06-26T00:09:37;17.10;72.20
19180;DHT22;9722;48.754;8.868;2023-06-26T00:12:57;17.10;72.70
19180;DHT22;9722;48.754;8.868;2023-06-26T00:16:18;17.00;72.80
19180;DHT22;9722;48.754;8.868;2023-06-26T00:19:38;17.00;72.90
19180;DHT22;9722;48.754;8.868;2023-06-26T00:22:59;17.00;73.20
19180;DHT22;9722;48.754;8.868;2023-06-26T00:26:20;17.00;73.50
19180;DHT22;9722;48.754;8.868;2023-06-26T00:29:40;17.00;73.70
19180;DHT22;9722;48.754;8.868;2023-06-26T00:33:01;16.90;74.70
19180;DHT22;9722;48.754;8.868;2023-06-26T00:36:22;16.90;74.30
19180;DHT22;9722;48.754;8.868;2023-06-26T00:39:46;16.90;74.60
19180;DHT22;9722;48.754;8.868;2023-06-26T00:43:07;16.90;74.90
19180;DHT22;9722;48.754;8.868;2023-06-26T00:46:27;16.90;75.10
19180;DHT22;9722;48.754;8.868;2023-06-26T00:49:48;16.80;75.40
19180;DHT22;9722;48.754;8.868;2023-06-26T00:53:12;16.90;75.80
19180;DHT22;9722;48.754;8.868;2023-06-26T00:56:32;16.80;75.70
19180;DHT22;9722;48.754;8.868;2023-06-26T00:59:54;16.80;76.30
19180;DHT22;9722;48.754;8.868;2023-06-26T01:03:14;16.70;76.60
19180;DHT22;9722;48.754;8.868;2023-06-26T01:06:35;16.70;78.00
19180;DHT22;9722;48.754;8.868;2023-06-26T01:09:56;16.70;77.40
19180;DHT22;9722;48.754;8.868;2023-06-26T01:13:17;16.60;77.70
19180;DHT22;9722;48.754;8.868;2023-06-26T01:16:39;16.60;78.00
19180;DHT22;9722;48.754;8.868;2023-06-26T01:20:00;16.60;78.50
19180;DHT22;9722;48.754;8.868;2023-06-26T01:23:29;16.60;78.70
19180;DHT22;9722;48.754;8.868;2023-06-26T01:26:51;16.50;78.90
19180;DHT22;9722;48.754;8.868;2023-06-26T01:30:12;16.40;79.10
19180;DHT22;9722;48.754;8.868;2023-06-26T01:33:33;16.40;79.30
19180;DHT22;9722;48.754;8.868;2023-06-26T01:36:53;16.40;79.70
19180;DHT22;9722;48.754;8.868;2023-06-26T01:40:14;16.40;79.80
19180;DHT22;9722;48.754;8.868;2023-06-26T01:47:22;16.30;80.20
19180;DHT22;9722;48.754;8.868;2023-06-26T01:50:44;16.30;80.40
19180;DHT22;9722;48.754;8.868;2023-06-26T01:54:10;16.30;80.60
19180;DHT22;9722;48.754;8.868;2023-06-26T01:57:32;16.30;80.90
19180;DHT22;9722;48.754;8.868;2023-06-26T02:00:54;16.20;80.80
19180;DHT22;9722;48.754;8.868;2023-06-26T02:04:14;16.20;81.10
19180;DHT22;9722;48.754;8.868;2023-06-26T02:07:35;16.20;81.40
19180;DHT22;9722;48.754;8.868;2023-06-26T02:10:56;16.20;81.80
19180;DHT22;9722;48.754;8.868;2023-06-26T02:14:16;16.10;82.30
19180;DHT22;9722;48.754;8.868;2023-06-26T02:17:37;16.10;82.70
19180;DHT22;9722;48.754;8.868;2023-06-26T02:20:57;16.10;83.10
19180;DHT22;9722;48.754;8.868;2023-06-26T02:24:18;16.00;83.30
19180;DHT22;9722;48.754;8.868;2023-06-26T02:27:38;15.90;83.90
19180;DHT22;9722;48.754;8.868;2023-06-26T02:30:59;15.90;84.40
19180;DHT22;9722;48.754;8.868;2023-06-26T02:34:20;15.80;84.80
19180;DHT22;9722;48.754;8.868;2023-06-26T02:37:40;15.70;85.00
19180;DHT22;9722;48.754;8.868;2023-06-26T02:41:01;15.70;85.50
19180;DHT22;9722;48.754;8.868;2023-06-26T02:44:21;15.60;85.60
19180;DHT22;9722;48.754;8.868;2023-06-26T02:47:42;15.60;86.10
19180;DHT22;9722;48.754;8.868;2023-06-26T02:51:02;15.60;86.30
19180;DHT22;9722;48.754;8.868;2023-06-26T02:54:23;15.50;86.60
19180;DHT22;9722;48.754;8.868;2023-06-26T02:57:43;15.50;87.10
19180;DHT22;9722;48.754;8.868;2023-06-26T03:01:04;15.50;87.30
19180;DHT22;9722;48.754;8.868;2023-06-26T03:04:24;15.40;87.50
19180;DHT22;9722;48.754;8.868;2023-06-26T03:07:45;15.40;87.90
19180;DHT22;9722;48.754;8.868;2023-06-26T03:11:06;15.40;88.00
19180;DHT22;9722;48.754;8.868;2023-06-26T03:14:27;15.40;88.10
19180;DHT22;9722;48.754;8.868;2023-06-26T03:17:48;15.40;88.20
19180;DHT22;9722;48.754;8.868;2023-06-26T03:21:08;15.30;88.30
19180;DHT22;9722;48.754;8.868;2023-06-26T03:24:29;15.30;88.40
19180;DHT22;9722;48.754;8.868;2023-06-26T03:27:50;15.30;88.50
19180;DHT22;9722;48.754;8.868;2023-06-26T03:31:10;15.30;88.50
19180;DHT22;9722;48.754;8.868;2023-06-26T03:34:31;15.30;89.20
19180;DHT22;9722;48.754;8.868;2023-06-26T03:37:52;15.40;88.70
19180;DHT22;9722;48.754;8.868;2023-06-26T03:41:12;15.40;88.70
19180;DHT22;9722;48.754;8.868;2023-06-26T03:44:33;15.40;88.60
19180;DHT22;9722;48.754;8.868;2023-06-26T03:47:53;15.50;88.70
19180;DHT22;9722;48.754;8.868;2023-06-26T03:51:14;15.40;88.40
19180;DHT22;9722;48.754;8.868;2023-06-26T03:54:35;15.50;88.60
19180;DHT22;9722;48.754;8.868;2023-06-26T03:57:55;15.60;88.70
19180;DHT22;9722;48.754;8.868;2023-06-26T04:01:16;15.60;88.60
19180;DHT22;9722;48.754;8.868;2023-06-26T04:04:36;15.60;88.60
19180;DHT22;9722;48.754;8.868;2023-06-26T04:07:57;15.60;88.60
19180;DHT22;9722;48.754;8.868;2023-06-26T04:11:17;15.70;88.50
19180;DHT22;9722;48.754;8.868;2023-06-26T04:14:38;15.80;88.40
19180;DHT22;9722;48.754;8.868;2023-06-26T04:17:58;15.90;88.20
19180;DHT22;9722;48.754;8.868;2023-06-26T04:21:19;16.00;87.90
19180;DHT22;9722;48.754;8.868;2023-06-26T04:24:40;16.10;87.80
19180;DHT22;9722;48.754;8.868;2023-06-26T04:28:00;16.20;87.40
19180;DHT22;9722;48.754;8.868;2023-06-26T04:31:21;16.30;87.00
19180;DHT22;9722;48.754;8.868;2023-06-26T04:34:42;16.50;86.80
19180;DHT22;9722;48.754;8.868;2023-06-26T04:38:05;16.60;86.40
19180;DHT22;9722;48.754;8.868;2023-06-26T04:41:26;16.70;86.70
19180;DHT22;9722;48.754;8.868;2023-06-26T04:44:46;16.90;85.50
19180;DHT22;9722;48.754;8.868;2023-06-26T04:48:07;17.00;84.80
19180;DHT22;9722;48.754;8.868;2023-06-26T04:51:27;17.20;84.30
19180;DHT22;9722;48.754;8.868;2023-06-26T04:54:49;17.40;83.70
19180;DHT22;9722;48.754;8.868;2023-06-26T04:58:09;17.60;82.90
19180;DHT22;9722;48.754;8.868;2023-06-26T05:01:30;17.80;82.20
19180;DHT22;9722;48.754;8.868;2023-06-26T05:04:52;18.00;81.50
19180;DHT22;9722;48.754;8.868;2023-06-26T05:08:17;18.20;80.60
19180;DHT22;9722;48.754;8.868;2023-06-26T05:11:37;18.50;79.60
19180;DHT22;9722;48.754;8.868;2023-06-26T05:14:58;18.70;78.60
19180;DHT22;9722;48.754;8.868;2023-06-26T05:18:19;18.90;78.00
19180;DHT22;9722;48.754;8.868;2023-06-26T05:21:40;19.10;77.00
19180;DHT22;9722;48.754;8.868;2023-06-26T05:25:02;19.30;75.80
19180;DHT22;9722;48.754;8.868;2023-06-26T05:28:25;19.50;75.00
19180;DHT22;9722;48.754;8.868;2023-06-26T05:31:49;19.80;74.40
19180;DHT22;9722;48.754;8.868;2023-06-26T05:35:11;20.00;73.60
19180;DHT22;9722;48.754;8.868;2023-06-26T05:38:31;20.20;72.50
19180;DHT22;9722;48.754;8.868;2023-06-26T05:41:52;20.50;71.60
19180;DHT22;9722;48.754;8.868;2023-06-26T05:45:13;20.60;70.60
19180;DHT22;9722;48.754;8.868;2023-06-26T05:48:33;20.90;70.00
19180;DHT22;9722;48.754;8.868;2023-06-26T05:51:54;21.10;69.10
19180;DHT22;9722;48.754;8.868;2023-06-26T05:55:15;21.40;68.40
19180;DHT22;9722;48.754;8.868;2023-06-26T05:58:36;21.70;67.10
19180;DHT22;9722;48.754;8.868;2023-06-26T06:01:56;22.20;65.50
19180;DHT22;9722;48.754;8.868;2023-06-26T06:05:17;22.70;63.80
19180;DHT22;9722;48.754;8.868;2023-06-26T06:08:38;23.20;62.50
19180;DHT22;9722;48.754;8.868;2023-06-26T06:11:59;23.70;60.90
19180;DHT22;9722;48.754;8.868;2023-06-26T06:15:20;24.20;59.70
19180;DHT22;9722;48.754;8.868;2023-06-26T06:18:40;24.60;58.60
19180;DHT22;9722;48.754;8.868;2023-06-26T06:22:01;25.10;57.80
19180;DHT22;9722;48.754;8.868;2023-06-26T06:25:21;25.70;57.60
19180;DHT22;9722;48.754;8.868;2023-06-26T06:28:42;26.40;56.60
19180;DHT22;9722;48.754;8.868;2023-06-26T06:32:02;27.10;55.50
19180;DHT22;9722;48.754;8.868;2023-06-26T06:35:23;27.80;54.30
19180;DHT22;9722;48.754;8.868;2023-06-26T06:38:44;28.40;53.20
19180;DHT22;9722;48.754;8.868;2023-06-26T06:42:04;29.00;50.90
19180;DHT22;9722;48.754;8.868;2023-06-26T06:45:25;29.50;49.00
19180;DHT22;9722;48.754;8.868;2023-06-26T06:48:45;30.00;47.70
19180;DHT22;9722;48.754;8.868;2023-06-26T06:52:07;30.40;46.80
19180;DHT22;9722;48.754;8.868;2023-06-26T06:55:27;30.80;45.90
19180;DHT22;9722;48.754;8.868;2023-06-26T06:58:48;31.20;45.20
19180;DHT22;9722;48.754;8.868;2023-06-26T07:02:08;31.60;44.20
19180;DHT22;9722;48.754;8.868;2023-06-26T07:05:29;31.90;42.90
19180;DHT22;9722;48.754;8.868;2023-06-26T07:08:50;32.10;42.70
19180;DHT22;9722;48.754;8.868;2023-06-26T07:12:10;32.30;41.80
19180;DHT22;9722;48.754;8.868;2023-06-26T07:15:31;32.50;41.90
19180;DHT22;9722;48.754;8.868;2023-06-26T07:18:52;32.90;41.40
19180;DHT22;9722;48.754;8.868;2023-06-26T07:22:12;33.20;40.70
19180;DHT22;9722;48.754;8.868;2023-06-26T07:25:33;33.70;40.40
19180;DHT22;9722;48.754;8.868;2023-06-26T07:28:54;34.10;38.90
19180;DHT22;9722;48.754;8.868;2023-06-26T07:32:16;34.20;38.10
19180;DHT22;9722;48.754;8.868;2023-06-26T07:35:37;34.40;37.80
19180;DHT22;9722;48.754;8.868;2023-06-26T07:38:58;34.70;37.20
19180;DHT22;9722;48.754;8.868;2023-06-26T07:42:18;34.90;37.50
19180;DHT22;9722;48.754;8.868;2023-06-26T07:45:39;35.30;36.50
19180;DHT22;9722;48.754;8.868;2023-06-26T07:48:59;35.50;36.30
19180;DHT22;9722;48.754;8.868;2023-06-26T07:52:20;35.90;36.30
19180;DHT22;9722;48.754;8.868;2023-06-26T07:55:43;36.30;36.10
19180;DHT22;9722;48.754;8.868;2023-06-26T07:59:03;36.60;34.60
19180;DHT22;9722;48.754;8.868;2023-06-26T08:02:24;36.90;34.50
19180;DHT22;9722;48.754;8.868;2023-06-26T08:05:45;37.30;34.10
19180;DHT22;9722;48.754;8.868;2023-06-26T08:09:06;37.60;33.80
19180;DHT22;9722;48.754;8.868;2023-06-26T08:12:27;38.00;33.70
19180;DHT22;9722;48.754;8.868;2023-06-26T08:15:48;38.30;32.70
19180;DHT22;9722;48.754;8.868;2023-06-26T08:19:09;38.60;32.40
19180;DHT22;9722;48.754;8.868;2023-06-26T08:22:30;38.90;32.10
19180;DHT22;9722;48.754;8.868;2023-06-26T08:25:50;39.20;31.90
19180;DHT22;9722;48.754;8.868;2023-06-26T08:29:11;39.50;31.60
19180;DHT22;9722;48.754;8.868;2023-06-26T08:32:31;39.80;31.10
19180;DHT22;9722;48.754;8.868;2023-06-26T08:35:52;40.10;30.80
19180;DHT22;9722;48.754;8.868;2023-06-26T08:39:12;40.50;30.40
19180;DHT22;9722;48.754;8.868;2023-06-26T08:42:33;40.60;29.80
19180;DHT22;9722;48.754;8.868;2023-06-26T08:45:54;40.70;29.80
19180;DHT22;9722;48.754;8.868;2023-06-26T08:49:18;40.90;29.60
19180;DHT22;9722;48.754;8.868;2023-06-26T08:52:43;41.10;29.60
19180;DHT22;9722;48.754;8.868;2023-06-26T08:56:07;41.30;29.30
19180;DHT22;9722;48.754;8.868;2023-06-26T08:59:29;41.50;29.30
19180;DHT22;9722;48.754;8.868;2023-06-26T09:02:49;42.00;28.90
19180;DHT22;9722;48.754;8.868;2023-06-26T09:06:10;42.30;28.70
19180;DHT22;9722;48.754;8.868;2023-06-26T09:09:31;42.60;28.50
19180;DHT22;9722;48.754;8.868;2023-06-26T09:12:55;42.90;28.00
19180;DHT22;9722;48.754;8.868;2023-06-26T09:16:17;43.00;27.60
19180;DHT22;9722;48.754;8.868;2023-06-26T09:19:38;42.80;27.60
19180;DHT22;9722;48.754;8.868;2023-06-26T09:22:59;42.80;27.90
19180;DHT22;9722;48.754;8.868;2023-06-26T09:26:21;43.00;27.40
19180;DHT22;9722;48.754;8.868;2023-06-26T09:29:45;43.30;27.00
19180;DHT22;9722;48.754;8.868;2023-06-26T09:33:19;43.70;26.70
19180;DHT22;9722;48.754;8.868;2023-06-26T09:36:40;44.00;26.80
19180;DHT22;9722;48.754;8.868;2023-06-26T09:40:03;44.30;26.50
19180;DHT22;9722;48.754;8.868;2023-06-26T09:43:25;44.80;26.50
19180;DHT22;9722;48.754;8.868;2023-06-26T09:46:46;45.10;26.20
19180;DHT22;9722;48.754;8.868;2023-06-26T09:50:21;45.70;25.80
19180;DHT22;9722;48.754;8.868;2023-06-26T09:53:42;45.20;25.60
19180;DHT22;9722;48.754;8.868;2023-06-26T09:57:15;44.40;26.10
19180;DHT22;9722;48.754;8.868;2023-06-26T10:00:35;43.00;27.00
19180;DHT22;9722;48.754;8.868;2023-06-26T10:03:56;42.60;27.80
19180;DHT22;9722;48.754;8.868;2023-06-26T10:07:20;42.90;28.00
19180;DHT22;9722;48.754;8.868;2023-06-26T10:10:43;43.60;28.20
19180;DHT22;9722;48.754;8.868;2023-06-26T10:14:07;44.10;28.00
19180;DHT22;9722;48.754;8.868;2023-06-26T10:17:30;44.50;27.70
19180;DHT22;9722;48.754;8.868;2023-06-26T10:20:54;44.80;27.50
19180;DHT22;9722;48.754;8.868;2023-06-26T10:24:16;44.70;27.20
19180;DHT22;9722;48.754;8.868;2023-06-26T10:27:42;44.30;27.40
19180;DHT22;9722;48.754;8.868;2023-06-26T10:31:05;44.00;27.90
19180;DHT22;9722;48.754;8.868;2023-06-26T10:34:27;44.10;27.70
19180;DHT22;9722;48.754;8.868;2023-06-26T10:37:49;44.00;27.60
19180;DHT22;9722;48.754;8.868;2023-06-26T10:41:10;44.20;27.50
19180;DHT22;9722;48.754;8.868;2023-06-26T10:44:41;44.40;27.40
19180;DHT22;9722;48.754;8.868;2023-06-26T10:48:03;43.80;27.60
19180;DHT22;9722;48.754;8.868;2023-06-26T10:51:28;43.30;27.90
19180;DHT22;9722;48.754;8.868;2023-06-26T10:54:48;43.50;28.30
19180;DHT22;9722;48.754;8.868;2023-06-26T10:58:28;43.60;28.10
19180;DHT22;9722;48.754;8.868;2023-06-26T11:01:59;42.70;28.30
19180;DHT22;9722;48.754;8.868;2023-06-26T11:05:24;41.10;29.30
19180;DHT22;9722;48.754;8.868;2023-06-26T11:09:14;39.80;30.70
19180;DHT22;9722;48.754;8.868;2023-06-26T11:12:41;38.90;32.00
19180;DHT22;9722;48.754;8.868;2023-06-26T11:16:02;38.60;32.70
19180;DHT22;9722;48.754;8.868;2023-06-26T11:19:25;38.60;32.80
19180;DHT22;9722;48.754;8.868;2023-06-26T11:22:46;38.80;33.70
19180;DHT22;9722;48.754;8.868;2023-06-26T11:26:16;39.70;32.90
19180;DHT22;9722;48.754;8.868;2023-06-26T11:29:36;40.40;32.60
19180;DHT22;9722;48.754;8.868;2023-06-26T11:33:08;41.00;31.80
19180;DHT22;9722;48.754;8.868;2023-06-26T11:36:29;42.00;31.10
19180;DHT22;9722;48.754;8.868;2023-06-26T11:39:50;42.90;30.00
19180;DHT22;9722;48.754;8.868;2023-06-26T11:43:11;43.50;29.60
19180;DHT22;9722;48.754;8.868;2023-06-26T11:46:34;42.90;29.60
19180;DHT22;9722;48.754;8.868;2023-06-26T11:49:55;42.00;30.20
19180;DHT22;9722;48.754;8.868;2023-06-26T11:53:15;41.90;30.80
19180;DHT22;9722;48.754;8.868;2023-06-26T11:56:36;42.30;30.70
19180;DHT22;9722;48.754;8.868;2023-06-26T11:59:56;42.60;30.40
19180;DHT22;9722;48.754;8.868;2023-06-26T12:03:17;43.10;30.10
19180;DHT22;9722;48.754;8.868;2023-06-26T12:06:40;43.40;29.80
19180;DHT22;9722;48.754;8.868;2023-06-26T12:10:01;43.60;29.70
19180;DHT22;9722;48.754;8.868;2023-06-26T12:13:22;44.10;29.40
19180;DHT22;9722;48.754;8.868;2023-06-26T12:16:42;44.30;29.20
19180;DHT22;9722;48.754;8.868;2023-06-26T12:20:03;44.60;28.90
19180;DHT22;9722;48.754;8.868;2023-06-26T12:23:32;44.80;28.90
19180;DHT22;9722;48.754;8.868;2023-06-26T12:26:54;45.10;28.40
19180;DHT22;9722;48.754;8.868;2023-06-26T12:30:17;45.30;28.40
19180;DHT22;9722;48.754;8.868;2023-06-26T12:33:37;45.40;28.20
19180;DHT22;9722;48.754;8.868;2023-06-26T12:37:03;45.70;27.90
19180;DHT22;9722;48.754;8.868;2023-06-26T12:40:24;45.70;27.70
19180;DHT22;9722;48.754;8.868;2023-06-26T12:43:45;45.60;27.70
19180;DHT22;9722;48.754;8.868;2023-06-26T12:47:05;45.30;27.60
19180;DHT22;9722;48.754;8.868;2023-06-26T12:50:27;45.00;27.70
19180;DHT22;9722;48.754;8.868;2023-06-26T12:53:48;44.70;27.80
19180;DHT22;9722;48.754;8.868;2023-06-26T12:57:09;44.60;27.90
19180;DHT22;9722;48.754;8.868;2023-06-26T13:00:30;44.10;27.80
19180;DHT22;9722;48.754;8.868;2023-06-26T13:03:52;43.40;28.20
19180;DHT22;9722;48.754;8.868;2023-06-26T13:07:12;43.00;28.50
19180;DHT22;9722;48.754;8.868;2023-06-26T13:10:33;42.90;28.80
19180;DHT22;9722;48.754;8.868;2023-06-26T13:13:53;42.90;28.60
19180;DHT22;9722;48.754;8.868;2023-06-26T13:17:14;43.00;28.70
19180;DHT22;9722;48.754;8.868;2023-06-26T13:20:34;43.20;28.50
19180;DHT22;9722;48.754;8.868;2023-06-26T13:23:56;43.20;28.30
19180;DHT22;9722;48.754;8.868;2023-06-26T13:27:17;42.90;28.10
19180;DHT22;9722;48.754;8.868;2023-06-26T13:30:37;41.80;28.30
19180;DHT22;9722;48.754;8.868;2023-06-26T13:33:59;40.10;29.20
19180;DHT22;9722;48.754;8.868;2023-06-26T13:37:19;38.30;30.50
19180;DHT22;9722;48.754;8.868;2023-06-26T13:40:40;36.80;31.90
19180;DHT22;9722;48.754;8.868;2023-06-26T13:44:00;35.70;33.60
19180;DHT22;9722;48.754;8.868;2023-06-26T13:47:21;34.90;34.50
19180;DHT22;9722;48.754;8.868;2023-06-26T13:50:42;34.30;35.20
19180;DHT22;9722;48.754;8.868;2023-06-26T13:54:02;34.00;35.30
19180;DHT22;9722;48.754;8.868;2023-06-26T13:57:23;33.60;35.70
19180;DHT22;9722;48.754;8.868;2023-06-26T14:00:43;33.40;35.80
19180;DHT22;9722;48.754;8.868;2023-06-26T14:04:04;33.20;36.00
19180;DHT22;9722;48.754;8.868;2023-06-26T14:07:25;32.90;36.50
19180;DHT22;9722;48.754;8.868;2023-06-26T14:10:45;32.80;37.20
19180;DHT22;9722;48.754;8.868;2023-06-26T14:14:06;32.60;37.60
19180;DHT22;9722;48.754;8.868;2023-06-26T14:17:26;32.60;38.00
19180;DHT22;9722;48.754;8.868;2023-06-26T14:20:47;32.50;37.90
19180;DHT22;9722;48.754;8.868;2023-06-26T14:24:07;32.40;38.30
19180;DHT22;9722;48.754;8.868;2023-06-26T14:27:28;32.30;38.70
19180;DHT22;9722;48.754;8.868;2023-06-26T14:30:48;32.20;39.00
19180;DHT22;9722;48.754;8.868;2023-06-26T14:34:09;32.10;39.40
19180;DHT22;9722;48.754;8.868;2023-06-26T14:37:30;32.10;39.40
19180;DHT22;9722;48.754;8.868;2023-06-26T14:40:50;32.10;39.40
19180;DHT22;9722;48.754;8.868;2023-06-26T14:44:11;32.00;39.50
19180;DHT22;9722;48.754;8.868;2023-06-26T14:47:32;32.00;39.40
19180;DHT22;9722;48.754;8.868;2023-06-26T14:50:52;31.90;39.50
19180;DHT22;9722;48.754;8.868;2023-06-26T14:54:13;31.80;39.60
19180;DHT22;9722;48.754;8.868;2023-06-26T14:57:33;31.70;39.70
19180;DHT22;9722;48.754;8.868;2023-06-26T15:00:54;31.60;39.70
19180;DHT22;9722;48.754;8.868;2023-06-26T15:04:14;31.50;39.80
19180;DHT22;9722;48.754;8.868;2023-06-26T15:07:35;31.40;39.80
19180;DHT22;9722;48.754;8.868;2023-06-26T15:10:55;31.40;40.00
19180;DHT22;9722;48.754;8.868;2023-06-26T15:14:16;31.40;39.90
19180;DHT22;9722;48.754;8.868;2023-06-26T15:17:36;31.40;39.80
19180;DHT22;9722;48.754;8.868;2023-06-26T15:20:57;31.30;39.80
19180;DHT22;9722;48.754;8.868;2023-06-26T15:24:17;31.20;39.70
19180;DHT22;9722;48.754;8.868;2023-06-26T15:27:38;31.00;39.80
19180;DHT22;9722;48.754;8.868;2023-06-26T15:30:59;31.00;40.10
19180;DHT22;9722;48.754;8.868;2023-06-26T15:34:19;30.90;40.50
19180;DHT22;9722;48.754;8.868;2023-06-26T15:37:40;30.80;40.50
19180;DHT22;9722;48.754;8.868;2023-06-26T15:41:00;30.70;40.70
19180;DHT22;9722;48.754;8.868;2023-06-26T15:44:22;30.70;41.10
19180;DHT22;9722;48.754;8.868;2023-06-26T15:47:43;30.60;41.00
19180;DHT22;9722;48.754;8.868;2023-06-26T15:51:04;30.60;41.20
19180;DHT22;9722;48.754;8.868;2023-06-26T15:54:25;30.50;41.20
19180;DHT22;9722;48.754;8.868;2023-06-26T15:57:45;30.40;41.00
19180;DHT22;9722;48.754;8.868;2023-06-26T16:01:06;30.20;41.00
19180;DHT22;9722;48.754;8.868;2023-06-26T16:04:26;30.10;41.10
19180;DHT22;9722;48.754;8.868;2023-06-26T16:07:47;30.00;41.30
19180;DHT22;9722;48.754;8.868;2023-06-26T16:11:08;29.90;41.10
19180;DHT22;9722;48.754;8.868;2023-06-26T16:14:28;29.80;41.10
19180;DHT22;9722;48.754;8.868;2023-06-26T16:17:49;29.70;41.00
19180;DHT22;9722;48.754;8.868;2023-06-26T16:21:09;29.60;40.80
19180;DHT22;9722;48.754;8.868;2023-06-26T16:24:30;29.60;40.40
19180;DHT22;9722;48.754;8.868;2023-06-26T16:27:50;29.50;40.00
19180;DHT22;9722;48.754;8.868;2023-06-26T16:31:11;29.50;39.90
19180;DHT22;9722;48.754;8.868;2023-06-26T16:34:31;29.50;39.70
19180;DHT22;9722;48.754;8.868;2023-06-26T16:37:52;29.60;39.20
19180;DHT22;9722;48.754;8.868;2023-06-26T16:41:12;29.60;38.90
19180;DHT22;9722;48.754;8.868;2023-06-26T16:44:33;29.60;38.60
19180;DHT22;9722;48.754;8.868;2023-06-26T16:47:54;29.50;38.00
19180;DHT22;9722;48.754;8.868;2023-06-26T16:51:14;29.30;37.70
19180;DHT22;9722;48.754;8.868;2023-06-26T16:54:35;29.10;37.80
19180;DHT22;9722;48.754;8.868;2023-06-26T16:57:55;28.70;37.70
19180;DHT22;9722;48.754;8.868;2023-06-26T17:01:16;28.40;37.80
19180;DHT22;9722;48.754;8.868;2023-06-26T17:04:36;28.20;38.30
19180;DHT22;9722;48.754;8.868;2023-06-26T17:07:57;27.80;38.40
19180;DHT22;9722;48.754;8.868;2023-06-26T17:11:18;27.60;38.60
19180;DHT22;9722;48.754;8.868;2023-06-26T17:14:38;27.40;38.90
19180;DHT22;9722;48.754;8.868;2023-06-26T17:17:59;27.30;39.00
19180;DHT22;9722;48.754;8.868;2023-06-26T17:21:19;27.20;39.10
19180;DHT22;9722;48.754;8.868;2023-06-26T17:24:40;27.10;39.00
19180;DHT22;9722;48.754;8.868;2023-06-26T17:28:01;27.10;39.10
19180;DHT22;9722;48.754;8.868;2023-06-26T17:31:21;27.00;39.00
19180;DHT22;9722;48.754;8.868;2023-06-26T17:34:42;26.90;38.90
19180;DHT22;9722;48.754;8.868;2023-06-26T17:38:02;26.80;39.00
19180;DHT22;9722;48.754;8.868;2023-06-26T17:41:23;26.70;39.20
19180;DHT22;9722;48.754;8.868;2023-06-26T17:44:43;26.70;39.50
19180;DHT22;9722;48.754;8.868;2023-06-26T17:48:04;26.50;39.60
19180;DHT22;9722;48.754;8.868;2023-06-26T17:51:25;26.40;39.70
19180;DHT22;9722;48.754;8.868;2023-06-26T17:54:45;26.20;40.00
19180;DHT22;9722;48.754;8.868;2023-06-26T17:58:06;26.00;40.20
19180;DHT22;9722;48.754;8.868;2023-06-26T18:01:26;25.80;40.70
19180;DHT22;9722;48.754;8.868;2023-06-26T18:04:47;25.60;40.90
19180;DHT22;9722;48.754;8.868;2023-06-26T18:08:08;25.50;41.20
19180;DHT22;9722;48.754;8.868;2023-06-26T18:11:28;25.30;41.40
19180;DHT22;9722;48.754;8.868;2023-06-26T18:14:49;25.10;41.50
19180;DHT22;9722;48.754;8.868;2023-06-26T18:18:09;24.90;41.60
19180;DHT22;9722;48.754;8.868;2023-06-26T18:21:30;24.70;41.80
19180;DHT22;9722;48.754;8.868;2023-06-26T18:24:50;24.60;42.00
19180;DHT22;9722;48.754;8.868;2023-06-26T18:28:11;24.40;42.10
19180;DHT22;9722;48.754;8.868;2023-06-26T18:31:32;24.20;42.20
19180;DHT22;9722;48.754;8.868;2023-06-26T18:34:53;24.10;42.40
19180;DHT22;9722;48.754;8.868;2023-06-26T18:38:14;23.90;42.60
19180;DHT22;9722;48.754;8.868;2023-06-26T18:41:34;23.70;42.80
19180;DHT22;9722;48.754;8.868;2023-06-26T18:44:55;23.60;43.00
19180;DHT22;9722;48.754;8.868;2023-06-26T18:48:15;23.40;43.20
19180;DHT22;9722;48.754;8.868;2023-06-26T18:51:36;23.20;43.50
19180;DHT22;9722;48.754;8.868;2023-06-26T18:54:56;23.10;43.80
19180;DHT22;9722;48.754;8.868;2023-06-26T18:58:17;22.90;44.00
19180;DHT22;9722;48.754;8.868;2023-06-26T19:01:37;22.80;44.30
19180;DHT22;9722;48.754;8.868;2023-06-26T19:04:58;22.60;44.60
19180;DHT22;9722;48.754;8.868;2023-06-26T19:08:19;22.50;44.90
19180;DHT22;9722;48.754;8.868;2023-06-26T19:11:39;22.30;44.80
19180;DHT22;9722;48.754;8.868;2023-06-26T19:15:02;22.10;44.90
19180;DHT22;9722;48.754;8.868;2023-06-26T19:18:22;22.10;45.20
19180;DHT22;9722;48.754;8.868;2023-06-26T19:21:43;21.90;45.20
19180;DHT22;9722;48.754;8.868;2023-06-26T19:25:04;21.70;45.20
19180;DHT22;9722;48.754;8.868;2023-06-26T19:28:25;21.60;45.50
19180;DHT22;9722;48.754;8.868;2023-06-26T19:31:46;21.60;45.70
19180;DHT22;9722;48.754;8.868;2023-06-26T19:35:09;21.40;45.70
19180;DHT22;9722;48.754;8.868;2023-06-26T19:38:30;21.40;45.80
19180;DHT22;9722;48.754;8.868;2023-06-26T19:41:50;21.30;45.90
19180;DHT22;9722;48.754;8.868;2023-06-26T19:45:11;21.20;46.00
19180;DHT22;9722;48.754;8.868;2023-06-26T19:48:31;21.20;46.30
19180;DHT22;9722;48.754;8.868;2023-06-26T19:51:52;21.20;46.40
19180;DHT22;9722;48.754;8.868;2023-06-26T19:55:12;21.10;46.70
19180;DHT22;9722;48.754;8.868;2023-06-26T19:58:33;21.00;47.00
19180;DHT22;9722;48.754;8.868;2023-06-26T20:01:53;20.90;46.90
19180;DHT22;9722;48.754;8.868;2023-06-26T20:05:14;20.90;47.40
19180;DHT22;9722;48.754;8.868;2023-06-26T20:08:34;20.80;47.70
19180;DHT22;9722;48.754;8.868;2023-06-26T20:11:55;20.70;48.00
19180;DHT22;9722;48.754;8.868;2023-06-26T20:15:15;20.60;48.10
19180;DHT22;9722;48.754;8.868;2023-06-26T20:18:36;20.60;48.30
19180;DHT22;9722;48.754;8.868;2023-06-26T20:21:57;20.50;48.60
19180;DHT22;9722;48.754;8.868;2023-06-26T20:25:18;20.40;48.80
19180;DHT22;9722;48.754;8.868;2023-06-26T20:28:38;20.30;48.90
19180;DHT22;9722;48.754;8.868;2023-06-26T20:31:59;20.30;49.20
19180;DHT22;9722;48.754;8.868;2023-06-26T20:35:19;20.20;49.50
19180;DHT22;9722;48.754;8.868;2023-06-26T20:38:40;20.10;49.50
19180;DHT22;9722;48.754;8.868;2023-06-26T20:42:01;20.00;49.90
19180;DHT22;9722;48.754;8.868;2023-06-26T20:45:21;20.00;50.20
19180;DHT22;9722;48.754;8.868;2023-06-26T20:48:43;20.00;50.30
19180;DHT22;9722;48.754;8.868;2023-06-26T20:52:07;19.90;50.50
19180;DHT22;9722;48.754;8.868;2023-06-26T20:55:29;19.90;50.80
19180;DHT22;9722;48.754;8.868;2023-06-26T20:58:51;19.90;50.90
19180;DHT22;9722;48.754;8.868;2023-06-26T21:02:11;19.80;50.90
19180;DHT22;9722;48.754;8.868;2023-06-26T21:05:32;19.80;50.90
19180;DHT22;9722;48.754;8.868;2023-06-26T21:08:52;19.80;51.20
19180;DHT22;9722;48.754;8.868;2023-06-26T21:12:13;19.80;51.20
19180;DHT22;9722;48.754;8.868;2023-06-26T21:15:33;19.70;51.20
19180;DHT22;9722;48.754;8.868;2023-06-26T21:18:54;19.70;51.50
19180;DHT22;9722;48.754;8.868;2023-06-26T21:22:14;19.70;51.50
19180;DHT22;9722;48.754;8.868;2023-06-26T21:25:35;19.70;51.80
19180;DHT22;9722;48.754;8.868;2023-06-26T21:28:56;19.70;51.90
19180;DHT22;9722;48.754;8.868;2023-06-26T21:32:17;19.70;51.90
19180;DHT22;9722;48.754;8.868;2023-06-26T21:35:37;19.70;52.00